Marit Maersk — OUJN2 — position and weather

sailwx.info

Track history (hours):
 
Tides and Currents Weather Stations Pressure Air Temp Water Temp Dewpoint Dewpoint Depression Visibility Wind Speed Wind Dir Waves Ship Positions

Marit Maersk

Last reported at 2018-Feb-15 23:29 UTC. Time now 2018-Feb-19 02:07 UTC.
Position N 38°10' W 125°06'.

Length 367 m; draft 12.8 m.

Type: Ship (hazmat cat A). MMSI: 220597000.

Date/timePositionNaut miles runAvg speedWind from/ knotsBaromVisibWave heightAir tempDewpointWater temp
2018-Feb-15 23:29N 38°10' W 125°06'919.1
2018-Feb-15 23:01N 38°10' W 124°54'918.9
2018-Feb-15 22:31N 38°10' W 124°42'1119.1
2018-Feb-15 21:56N 38°10' W 124°29'819.1
2018-Feb-15 21:30N 38°10' W 124°18'919.1
2018-Feb-15 21:00N 38°10' W 124°06'919.0
2018-Feb-15 20:31N 38°10' W 123°54'1019.3
2018-Feb-15 20:01N 38°10' W 123°42'1019.3
2018-Feb-15 19:30N 38°10' W 123°29'714.7
2018-Feb-15 19:00N 38°09' W 123°20'5 9.7
2018-Feb-15 18:30N 38°05' W 123°16'5 9.4
2018-Feb-15 18:00N 38°02' W 123°12'5 9.2
2018-Feb-15 17:30N 37°58' W 123°08'5 9.9
2018-Feb-15 17:00N 37°56' W 123°03'510.0
2018-Feb-15 16:30N 37°54' W 122°57'5 9.7
2018-Feb-15 16:00N 37°51' W 122°52'5 9.8
2018-Feb-15 15:30N 37°49' W 122°46'5 9.7
2018-Feb-15 15:00N 37°46' W 122°41'611.0
2018-Feb-15 14:30N 37°47' W 122°34'815.1
2018-Feb-15 14:00N 37°51' W 122°26'510.6
2018-Feb-15 13:30N 37°48' W 122°20'1 1.6
2018-Feb-15 12:59N 37°48' W 122°19'0 0.0
2018-Feb-15 12:29N 37°48' W 122°19'0 0.0
2018-Feb-15 11:59N 37°48' W 122°19'0 0.0
2018-Feb-15 11:29N 37°48' W 122°19'0 0.0
2018-Feb-15 10:59N 37°48' W 122°19'0 0.0
2018-Feb-15 10:29N 37°48' W 122°19'0 0.0
2018-Feb-15 09:59N 37°48' W 122°19'0 0.0
2018-Feb-15 09:29N 37°48' W 122°19'0 0.0
2018-Feb-15 08:59N 37°48' W 122°19'0 0.0
2018-Feb-15 08:30N 37°48' W 122°19'0 0.0
2018-Feb-15 08:00N 37°48' W 122°19'0 0.0
2018-Feb-15 07:30N 37°48' W 122°19'0 0.0
2018-Feb-15 07:00N 37°48' W 122°19'0 0.0
2018-Feb-15 06:28N 37°48' W 122°19'0 0.0
2018-Feb-15 06:00N 37°48' W 122°19'0 0.0
2018-Feb-15 05:30N 37°48' W 122°19'0 0.0
2018-Feb-15 05:00N 37°48' W 122°19'0 0.0
2018-Feb-15 04:30N 37°48' W 122°19'0 0.0
2018-Feb-15 04:00N 37°48' W 122°19'0 0.0
2018-Feb-15 03:31N 37°48' W 122°19'0 0.0
2018-Feb-15 03:00N 37°48' W 122°19'0 0.0
2018-Feb-15 02:30N 37°48' W 122°19'0 0.0
2018-Feb-15 02:00N 37°48' W 122°19'0 0.0
2018-Feb-15 01:30N 37°48' W 122°19'0 0.0
2018-Feb-15 01:00N 37°48' W 122°19'0 0.0
2018-Feb-15 00:29N 37°48' W 122°19'0 0.0
2018-Feb-15 00:00N 37°48' W 122°19'0 0.0
2018-Feb-14 23:30N 37°48' W 122°19'0 0.0
2018-Feb-14 23:01N 37°48' W 122°19'0 0.0
2018-Feb-14 22:30N 37°48' W 122°19'0 0.0
2018-Feb-14 22:00N 37°48' W 122°19'0 0.0
2018-Feb-14 21:30N 37°48' W 122°19'0 0.0
2018-Feb-14 21:00N 37°48' W 122°19'0 0.0
2018-Feb-14 20:30N 37°48' W 122°19'0 0.0
2018-Feb-14 20:00N 37°48' W 122°19'0 0.0
2018-Feb-14 19:30N 37°48' W 122°19'0 0.0
2018-Feb-14 19:00N 37°48' W 122°19'0 0.0
2018-Feb-14 18:30N 37°48' W 122°19'0 0.0
2018-Feb-14 18:00N 37°48' W 122°19'0 0.0
2018-Feb-14 17:30N 37°48' W 122°19'0 0.0
2018-Feb-14 17:00N 37°48' W 122°19'0 0.0
2018-Feb-14 16:31N 37°48' W 122°19'0 0.0
2018-Feb-14 16:00N 37°48' W 122°19'0 0.0
2018-Feb-14 15:30N 37°48' W 122°19'1 1.2
2018-Feb-14 15:00N 37°48' W 122°18'1 1.1
2018-Feb-14 14:30N 37°48' W 122°17'1 2.5
2018-Feb-14 14:00N 37°48' W 122°19'2 4.9
2018-Feb-14 13:30N 37°48' W 122°22'5 9.4
2018-Feb-14 13:00N 37°49' W 122°28'714.3
2018-Feb-14 12:30N 37°46' W 122°36'5 9.6
2018-Feb-14 12:01N 37°43' W 122°41'3 6.1
2018-Feb-14 11:31N 37°40' W 122°40'4 7.1
2018-Feb-14 11:01N 37°37' W 122°40'510.1
2018-Feb-14 10:31N 37°32' W 122°40'510.5
2018-Feb-14 10:00N 37°27' W 122°40'510.6
2018-Feb-14 09:31N 37°21' W 122°40'510.5
2018-Feb-14 09:01N 37°16' W 122°40'510.5
2018-Feb-14 08:30N 37°11' W 122°40'5 9.8
2018-Feb-14 08:01N 37°06' W 122°37'510.2
2018-Feb-14 07:31N 37°02' W 122°35'510.0
2018-Feb-14 07:00N 36°57' W 122°32'510.0
2018-Feb-14 06:31N 36°52' W 122°30'510.2
2018-Feb-14 06:01N 36°48' W 122°27'1110.0
2018-Feb-14 04:53N 36°37' W 122°22'410.0
2018-Feb-14 04:26N 36°33' W 122°20'410.1
2018-Feb-14 04:00N 36°29' W 122°18'7811.3
2018-Feb-13 21:05N 35°21' W 121°31'111.9
2018-Feb-13 21:01N 35°20' W 121°31'4112.0
2018-Feb-13 17:34N 34°44' W 121°05'112.3
2018-Feb-13 17:29N 34°43' W 121°05'612.3
2018-Feb-13 17:01N 34°38' W 121°01'612.2
2018-Feb-13 16:29N 34°33' W 120°58'612.3
2018-Feb-13 16:01N 34°28' W 120°54'612.1
2018-Feb-13 15:30N 34°25' W 120°47'612.2
2018-Feb-13 15:00N 34°24' W 120°40'612.1
2018-Feb-13 14:30N 34°22' W 120°33'612.2
2018-Feb-13 14:00N 34°21' W 120°26'612.1
2018-Feb-13 13:29N 34°19' W 120°19'612.1
2018-Feb-13 13:01N 34°17' W 120°12'712.3
2018-Feb-13 12:27N 34°15' W 120°04'612.4
2018-Feb-13 11:59N 34°14' W 119°57'612.2
2018-Feb-13 11:29N 34°12' W 119°50'612.5
2018-Feb-13 11:00N 34°11' W 119°43'712.4
2018-Feb-13 10:28N 34°09' W 119°35'612.6
2018-Feb-13 09:59N 34°07' W 119°28'612.4
2018-Feb-13 09:28N 34°05' W 119°21'612.1
2018-Feb-13 09:00N 34°04' W 119°14'612.3
2018-Feb-13 08:30N 34°01' W 119°08'612.2
2018-Feb-13 08:00N 33°58' W 119°01'612.1
2018-Feb-13 07:31N 33°55' W 118°55'611.9
2018-Feb-13 07:01N 33°52' W 118°49'611.9
2018-Feb-13 06:31N 33°49' W 118°43'611.9
2018-Feb-13 06:00N 33°46' W 118°36'611.7
2018-Feb-13 05:31N 33°43' W 118°30'611.4
2018-Feb-13 05:01N 33°40' W 118°24'710.2
2018-Feb-13 04:19N 33°38' W 118°16'310.0
2018-Feb-13 04:00N 33°39' W 118°13'3 6.5
2018-Feb-13 03:30N 33°42' W 118°11'3 6.8
2018-Feb-13 03:01N 33°45' W 118°13'1 1.1
2018-Feb-13 02:25N 33°45' W 118°14'0 0.0
2018-Feb-13 01:46N 33°45' W 118°14'0 0.0
2018-Feb-13 01:28N 33°45' W 118°14'0 0.0
2018-Feb-13 00:58N 33°45' W 118°14'0 0.0
2018-Feb-13 00:25N 33°45' W 118°14'0 0.0
2018-Feb-12 23:58N 33°45' W 118°14'0 0.0
2018-Feb-12 23:28N 33°45' W 118°14'0 0.0
2018-Feb-12 22:58N 33°45' W 118°14'0 0.0
2018-Feb-12 22:28N 33°45' W 118°14'0 0.0
2018-Feb-12 21:58N 33°45' W 118°14'0 0.0
2018-Feb-12 21:28N 33°45' W 118°14'0 0.0
2018-Feb-12 20:58N 33°45' W 118°14'0 0.0
2018-Feb-12 20:25N 33°45' W 118°14'0 0.0
2018-Feb-12 19:58N 33°45' W 118°14'0 0.0
2018-Feb-12 19:28N 33°45' W 118°14'0 0.0
2018-Feb-12 18:58N 33°45' W 118°14'0 0.0
2018-Feb-12 18:28N 33°45' W 118°14'0 0.0
2018-Feb-12 17:58N 33°45' W 118°14'0 0.0
2018-Feb-12 17:28N 33°45' W 118°14'0 0.0
2018-Feb-12 16:58N 33°45' W 118°14'0 0.0
2018-Feb-12 16:28N 33°45' W 118°14'0 0.0
2018-Feb-12 15:58N 33°45' W 118°14'0 0.0
2018-Feb-12 15:13N 33°45' W 118°14'0 0.0
2018-Feb-12 14:58N 33°45' W 118°14'0 0.0
2018-Feb-12 14:28N 33°45' W 118°14'0 0.0
2018-Feb-12 13:55N 33°45' W 118°14'0 0.0
2018-Feb-12 13:28N 33°45' W 118°14'0 0.0
2018-Feb-12 12:58N 33°45' W 118°14'0 0.0
2018-Feb-12 12:28N 33°45' W 118°14'0 0.0
2018-Feb-12 11:58N 33°45' W 118°14'0 0.0
2018-Feb-12 11:28N 33°45' W 118°14'0 0.0
2018-Feb-12 10:58N 33°45' W 118°14'0 0.0
2018-Feb-12 10:28N 33°45' W 118°14'0 0.0
2018-Feb-12 09:58N 33°45' W 118°14'0 0.0
2018-Feb-12 09:13N 33°45' W 118°14'0 0.0
2018-Feb-12 08:52N 33°45' W 118°14'0 0.0
2018-Feb-12 08:28N 33°45' W 118°14'0 0.0
2018-Feb-12 07:55N 33°45' W 118°14'0 0.0
2018-Feb-12 07:25N 33°45' W 118°14'0 0.0
2018-Feb-12 06:55N 33°45' W 118°14'0 0.0
2018-Feb-12 06:10N 33°45' W 118°14'0 0.0
2018-Feb-12 05:55N 33°45' W 118°14'0 0.0
2018-Feb-12 05:19N 33°45' W 118°14'0 0.0
2018-Feb-12 04:49N 33°45' W 118°14'0 0.0
2018-Feb-12 04:28N 33°45' W 118°14'0 0.0
2018-Feb-12 03:58N 33°45' W 118°14'0 0.0
2018-Feb-12 02:13N 33°45' W 118°14'0 0.0
2018-Feb-12 01:58N 33°45' W 118°14'0 0.0
2018-Feb-12 01:28N 33°45' W 118°14'0 0.0
2018-Feb-12 00:58N 33°45' W 118°14'0 0.0
2018-Feb-12 00:28N 33°45' W 118°14'0 0.0
2018-Feb-11 23:58N 33°45' W 118°14'0 0.0
2018-Feb-11 23:28N 33°45' W 118°14'0 0.0
2018-Feb-11 22:58N 33°45' W 118°14'0 0.0
2018-Feb-11 22:28N 33°45' W 118°14'0 0.0
2018-Feb-11 21:58N 33°45' W 118°14'0 0.0
2018-Feb-11 21:28N 33°45' W 118°14'0 0.0
2018-Feb-11 20:59N 33°45' W 118°14'0 0.0
2018-Feb-11 20:29N 33°45' W 118°14'0 0.0
2018-Feb-11 19:58N 33°45' W 118°14'0 0.0
2018-Feb-11 19:28N 33°45' W 118°14'0 0.0
2018-Feb-11 18:58N 33°45' W 118°14'0 0.0
2018-Feb-11 18:28N 33°45' W 118°14'0 0.0
2018-Feb-11 17:58N 33°45' W 118°14'0 0.0
2018-Feb-11 17:28N 33°45' W 118°14'0 0.0
2018-Feb-11 16:55N 33°45' W 118°14'0 0.0
2018-Feb-11 16:28N 33°45' W 118°14'0 0.0
2018-Feb-11 15:58N 33°45' W 118°14'0 0.0
2018-Feb-11 15:28N 33°45' W 118°14'0 0.0
2018-Feb-11 14:55N 33°45' W 118°14'0 0.0
2018-Feb-11 14:28N 33°45' W 118°14'0 0.0
2018-Feb-11 13:58N 33°45' W 118°14'0 0.0
2018-Feb-11 13:28N 33°45' W 118°14'0 0.0
2018-Feb-11 12:58N 33°45' W 118°14'0 0.0
2018-Feb-11 12:28N 33°45' W 118°14'0 0.0
2018-Feb-11 11:58N 33°45' W 118°14'0 0.0
2018-Feb-11 11:28N 33°45' W 118°14'0 0.0
2018-Feb-11 10:58N 33°45' W 118°14'0 0.0
2018-Feb-11 10:28N 33°45' W 118°14'0 0.0
2018-Feb-11 09:58N 33°45' W 118°14'0 0.0
2018-Feb-11 09:28N 33°45' W 118°14'0 0.0
2018-Feb-11 08:58N 33°45' W 118°14'0 0.0
2018-Feb-11 08:25N 33°45' W 118°14'0 0.0
2018-Feb-11 07:55N 33°45' W 118°14'0 0.0
2018-Feb-11 07:25N 33°45' W 118°14'0 0.0
2018-Feb-11 06:49N 33°45' W 118°14'0 0.0
2018-Feb-11 06:28N 33°45' W 118°14'0 0.0
2018-Feb-11 05:58N 33°45' W 118°14'0 0.0
2018-Feb-11 05:25N 33°45' W 118°14'0 0.0
2018-Feb-11 04:52N 33°45' W 118°14'0 0.0
2018-Feb-11 04:28N 33°45' W 118°14'0 0.0
2018-Feb-11 03:58N 33°45' W 118°14'0 0.0
2018-Feb-11 03:19N 33°45' W 118°14'0 0.0
2018-Feb-11 02:58N 33°45' W 118°14'0 0.0
2018-Feb-11 02:28N 33°45' W 118°14'0 0.0
2018-Feb-11 01:58N 33°45' W 118°14'0 0.0
2018-Feb-11 01:28N 33°45' W 118°14'0 0.0
2018-Feb-11 00:58N 33°45' W 118°14'0 0.0
2018-Feb-11 00:28N 33°45' W 118°14'0 0.0
2018-Feb-10 23:58N 33°45' W 118°14'0 0.0
2018-Feb-10 23:28N 33°45' W 118°14'0 0.0
2018-Feb-10 22:58N 33°45' W 118°14'0 0.0
2018-Feb-10 22:28N 33°45' W 118°14'0 0.0
2018-Feb-10 21:58N 33°45' W 118°14'0 0.0
2018-Feb-10 21:28N 33°45' W 118°14'0 0.0
2018-Feb-10 20:58N 33°45' W 118°14'0 0.0
2018-Feb-10 20:28N 33°45' W 118°14'0 0.0
2018-Feb-10 19:55N 33°45' W 118°14'0 0.0
2018-Feb-10 19:28N 33°45' W 118°14'0 0.0
2018-Feb-10 18:58N 33°45' W 118°14'0 0.0
2018-Feb-10 18:28N 33°45' W 118°14'0 0.0
2018-Feb-10 17:55N 33°45' W 118°14'0 0.0
2018-Feb-10 17:28N 33°45' W 118°14'0 0.0
2018-Feb-10 16:58N 33°45' W 118°14'0 0.0
2018-Feb-10 16:28N 33°45' W 118°14'0 0.0
2018-Feb-10 15:58N 33°45' W 118°14'0 0.0
2018-Feb-10 15:28N 33°45' W 118°14'0 0.0
2018-Feb-10 14:58N 33°45' W 118°14'0 0.0
2018-Feb-10 14:28N 33°45' W 118°14'0 0.0
2018-Feb-10 13:58N 33°45' W 118°14'0 0.0
2018-Feb-10 13:28N 33°45' W 118°14'0 0.0
2018-Feb-10 12:58N 33°45' W 118°14'0 0.0
2018-Feb-10 12:28N 33°45' W 118°14'0 0.0
2018-Feb-10 11:58N 33°45' W 118°14'0 0.0
2018-Feb-10 11:26N 33°45' W 118°14'0 0.0
2018-Feb-10 10:56N 33°45' W 118°14'0 0.0
2018-Feb-10 10:29N 33°45' W 118°14'0 0.0
2018-Feb-10 09:58N 33°45' W 118°14'0 0.0
2018-Feb-10 09:28N 33°45' W 118°14'0 0.0
2018-Feb-10 08:58N 33°45' W 118°14'0 0.0
2018-Feb-10 08:28N 33°45' W 118°14'0 0.0
2018-Feb-10 07:52N 33°45' W 118°14'0 0.0
2018-Feb-10 07:28N 33°45' W 118°14'0 0.0
2018-Feb-10 06:58N 33°45' W 118°14'0 0.0
2018-Feb-10 06:28N 33°45' W 118°14'0 0.0
2018-Feb-10 05:58N 33°45' W 118°14'0 0.0
2018-Feb-10 05:28N 33°45' W 118°14'0 0.0
2018-Feb-10 04:58N 33°45' W 118°14'0 0.0
2018-Feb-10 04:28N 33°45' W 118°14'0 0.0
2018-Feb-10 03:58N 33°45' W 118°14'0 0.0
2018-Feb-10 03:28N 33°45' W 118°14'0 0.0
2018-Feb-10 02:58N 33°45' W 118°14'0 0.0
2018-Feb-10 02:30N 33°45' W 118°14'0 0.0
2018-Feb-10 02:00N 33°45' W 118°14'0 0.0
2018-Feb-10 01:30N 33°45' W 118°14'0 0.0
2018-Feb-10 01:00N 33°45' W 118°14'0 0.0
2018-Feb-10 00:30N 33°45' W 118°14'0 0.0
2018-Feb-10 00:00N 33°45' W 118°14'0 0.0
2018-Feb-09 23:30N 33°45' W 118°14'0 0.0
2018-Feb-09 23:00N 33°45' W 118°14'0 0.0
2018-Feb-09 22:46N 33°45' W 118°14'0 0.0
2018-Feb-09 22:31N 33°45' W 118°14'0 0.0
2018-Feb-09 22:01N 33°45' W 118°14'0 0.0
2018-Feb-09 21:01N 33°45' W 118°14'0 0.0
2018-Feb-09 20:31N 33°45' W 118°14'0 0.0
2018-Feb-09 20:01N 33°45' W 118°14'0 0.0
2018-Feb-09 19:31N 33°45' W 118°14'0 0.0
2018-Feb-09 19:00N 33°45' W 118°14'0 0.0
2018-Feb-09 18:30N 33°45' W 118°14'0 0.0
2018-Feb-09 18:01N 33°45' W 118°14'0 0.0
2018-Feb-09 15:30N 33°45' W 118°14'0 0.0
2018-Feb-09 14:31N 33°45' W 118°14'0 0.0
2018-Feb-09 14:01N 33°45' W 118°14'0 0.0
2018-Feb-09 12:30N 33°45' W 118°14'0 0.0
2018-Feb-09 12:00N 33°45' W 118°14'0 0.0
2018-Feb-09 11:30N 33°45' W 118°14'0 0.0
2018-Feb-09 11:01N 33°45' W 118°14'0 0.0
2018-Feb-09 10:01N 33°45' W 118°14'0 0.0
2018-Feb-09 08:31N 33°45' W 118°14'0 0.0
2018-Feb-09 04:00N 33°45' W 118°14'0 0.0
2018-Feb-09 00:00N 33°45' W 118°14'0 0.0
2018-Feb-08 23:31N 33°45' W 118°14'0 0.0
2018-Feb-08 18:30N 33°45' W 118°14'0 0.1
2018-Feb-08 12:00N 33°45' W 118°14'29 7.2
2018-Feb-08 08:00N 33°49' W 118°48'1711.1
2018-Feb-08 06:30N 33°57' W 119°06'611.4
2018-Feb-08 06:00N 34°00' W 119°12'5317.7
2018-Feb-08 03:00N 34°16' W 120°13'2818.9
2018-Feb-08 01:30N 34°23' W 120°46'918.4
2018-Feb-08 01:00N 34°25' W 120°57'918.4
2018-Feb-08 00:30N 34°25' W 121°08'1018.8
2018-Feb-07 23:59N 34°26' W 121°20'1018.8
2018-Feb-07 23:29N 34°26' W 121°31'918.9
2018-Feb-07 23:00N 34°26' W 121°42'1018.6
2018-Feb-07 22:28N 34°27' W 121°55'30218.4
2018-Feb-07 06:01N 36°07' W 127°44'122.2
2018-Feb-07 05:58N 36°07' W 127°45'13822.3
2018-Feb-06 23:45N 37°31' W 130°03'  
Track history (hours):
 
Tides and Currents Weather Stations Pressure Air Temp Water Temp Dewpoint Dewpoint Depression Visibility Wind Speed Wind Dir Waves Ship Positions

Marit Maersk

Last reported at 2018-Feb-15 23:29 UTC. Time now 2018-Feb-19 02:07 UTC.
Position N 38°10' W 125°06'.

Length 367 m; draft 12.8 m.

Type: Ship (hazmat cat A). MMSI: 220597000.

Date/timePositionNaut miles runAvg speedWind from/ knotsBaromVisibWave heightAir tempDewpointWater temp
2018-Feb-15 23:29N 38°10' W 125°06'919.1
2018-Feb-15 23:01N 38°10' W 124°54'918.9
2018-Feb-15 22:31N 38°10' W 124°42'1119.1
2018-Feb-15 21:56N 38°10' W 124°29'819.1
2018-Feb-15 21:30N 38°10' W 124°18'919.1
2018-Feb-15 21:00N 38°10' W 124°06'919.0
2018-Feb-15 20:31N 38°10' W 123°54'1019.3
2018-Feb-15 20:01N 38°10' W 123°42'1019.3
2018-Feb-15 19:30N 38°10' W 123°29'714.7
2018-Feb-15 19:00N 38°09' W 123°20'5 9.7
2018-Feb-15 18:30N 38°05' W 123°16'5 9.4
2018-Feb-15 18:00N 38°02' W 123°12'5 9.2
2018-Feb-15 17:30N 37°58' W 123°08'5 9.9
2018-Feb-15 17:00N 37°56' W 123°03'510.0
2018-Feb-15 16:30N 37°54' W 122°57'5 9.7
2018-Feb-15 16:00N 37°51' W 122°52'5 9.8
2018-Feb-15 15:30N 37°49' W 122°46'5 9.7
2018-Feb-15 15:00N 37°46' W 122°41'611.0
2018-Feb-15 14:30N 37°47' W 122°34'815.1
2018-Feb-15 14:00N 37°51' W 122°26'510.6
2018-Feb-15 13:30N 37°48' W 122°20'1 1.6
2018-Feb-15 12:59N 37°48' W 122°19'0 0.0
2018-Feb-15 12:29N 37°48' W 122°19'0 0.0
2018-Feb-15 11:59N 37°48' W 122°19'0 0.0
2018-Feb-15 11:29N 37°48' W 122°19'0 0.0
2018-Feb-15 10:59N 37°48' W 122°19'0 0.0
2018-Feb-15 10:29N 37°48' W 122°19'0 0.0
2018-Feb-15 09:59N 37°48' W 122°19'0 0.0
2018-Feb-15 09:29N 37°48' W 122°19'0 0.0
2018-Feb-15 08:59N 37°48' W 122°19'0 0.0
2018-Feb-15 08:30N 37°48' W 122°19'0 0.0
2018-Feb-15 08:00N 37°48' W 122°19'0 0.0
2018-Feb-15 07:30N 37°48' W 122°19'0 0.0
2018-Feb-15 07:00N 37°48' W 122°19'0 0.0
2018-Feb-15 06:28N 37°48' W 122°19'0 0.0
2018-Feb-15 06:00N 37°48' W 122°19'0 0.0
2018-Feb-15 05:30N 37°48' W 122°19'0 0.0
2018-Feb-15 05:00N 37°48' W 122°19'0 0.0
2018-Feb-15 04:30N 37°48' W 122°19'0 0.0
2018-Feb-15 04:00N 37°48' W 122°19'0 0.0
2018-Feb-15 03:31N 37°48' W 122°19'0 0.0
2018-Feb-15 03:00N 37°48' W 122°19'0 0.0
2018-Feb-15 02:30N 37°48' W 122°19'0 0.0
2018-Feb-15 02:00N 37°48' W 122°19'0 0.0
2018-Feb-15 01:30N 37°48' W 122°19'0 0.0
2018-Feb-15 01:00N 37°48' W 122°19'0 0.0
2018-Feb-15 00:29N 37°48' W 122°19'0 0.0
2018-Feb-15 00:00N 37°48' W 122°19'0 0.0
2018-Feb-14 23:30N 37°48' W 122°19'0 0.0
2018-Feb-14 23:01N 37°48' W 122°19'0 0.0
2018-Feb-14 22:30N 37°48' W 122°19'0 0.0
2018-Feb-14 22:00N 37°48' W 122°19'0 0.0
2018-Feb-14 21:30N 37°48' W 122°19'0 0.0
2018-Feb-14 21:00N 37°48' W 122°19'0 0.0
2018-Feb-14 20:30N 37°48' W 122°19'0 0.0
2018-Feb-14 20:00N 37°48' W 122°19'0 0.0
2018-Feb-14 19:30N 37°48' W 122°19'0 0.0
2018-Feb-14 19:00N 37°48' W 122°19'0 0.0
2018-Feb-14 18:30N 37°48' W 122°19'0 0.0
2018-Feb-14 18:00N 37°48' W 122°19'0 0.0
2018-Feb-14 17:30N 37°48' W 122°19'0 0.0
2018-Feb-14 17:00N 37°48' W 122°19'0 0.0
2018-Feb-14 16:31N 37°48' W 122°19'0 0.0
2018-Feb-14 16:00N 37°48' W 122°19'0 0.0
2018-Feb-14 15:30N 37°48' W 122°19'1 1.2
2018-Feb-14 15:00N 37°48' W 122°18'1 1.1
2018-Feb-14 14:30N 37°48' W 122°17'1 2.5
2018-Feb-14 14:00N 37°48' W 122°19'2 4.9
2018-Feb-14 13:30N 37°48' W 122°22'5 9.4
2018-Feb-14 13:00N 37°49' W 122°28'714.3
2018-Feb-14 12:30N 37°46' W 122°36'5 9.6
2018-Feb-14 12:01N 37°43' W 122°41'3 6.1
2018-Feb-14 11:31N 37°40' W 122°40'4 7.1
2018-Feb-14 11:01N 37°37' W 122°40'510.1
2018-Feb-14 10:31N 37°32' W 122°40'510.5
2018-Feb-14 10:00N 37°27' W 122°40'510.6
2018-Feb-14 09:31N 37°21' W 122°40'510.5
2018-Feb-14 09:01N 37°16' W 122°40'510.5
2018-Feb-14 08:30N 37°11' W 122°40'5 9.8
2018-Feb-14 08:01N 37°06' W 122°37'510.2
2018-Feb-14 07:31N 37°02' W 122°35'510.0
2018-Feb-14 07:00N 36°57' W 122°32'510.0
2018-Feb-14 06:31N 36°52' W 122°30'510.2
2018-Feb-14 06:01N 36°48' W 122°27'1110.0
2018-Feb-14 04:53N 36°37' W 122°22'410.0
2018-Feb-14 04:26N 36°33' W 122°20'410.1
2018-Feb-14 04:00N 36°29' W 122°18'7811.3
2018-Feb-13 21:05N 35°21' W 121°31'111.9
2018-Feb-13 21:01N 35°20' W 121°31'4112.0
2018-Feb-13 17:34N 34°44' W 121°05'112.3
2018-Feb-13 17:29N 34°43' W 121°05'612.3
2018-Feb-13 17:01N 34°38' W 121°01'612.2
2018-Feb-13 16:29N 34°33' W 120°58'612.3
2018-Feb-13 16:01N 34°28' W 120°54'612.1
2018-Feb-13 15:30N 34°25' W 120°47'612.2
2018-Feb-13 15:00N 34°24' W 120°40'612.1
2018-Feb-13 14:30N 34°22' W 120°33'612.2
2018-Feb-13 14:00N 34°21' W 120°26'612.1
2018-Feb-13 13:29N 34°19' W 120°19'612.1
2018-Feb-13 13:01N 34°17' W 120°12'712.3
2018-Feb-13 12:27N 34°15' W 120°04'612.4
2018-Feb-13 11:59N 34°14' W 119°57'612.2
2018-Feb-13 11:29N 34°12' W 119°50'612.5
2018-Feb-13 11:00N 34°11' W 119°43'712.4
2018-Feb-13 10:28N 34°09' W 119°35'612.6
2018-Feb-13 09:59N 34°07' W 119°28'612.4
2018-Feb-13 09:28N 34°05' W 119°21'612.1
2018-Feb-13 09:00N 34°04' W 119°14'612.3
2018-Feb-13 08:30N 34°01' W 119°08'612.2
2018-Feb-13 08:00N 33°58' W 119°01'612.1
2018-Feb-13 07:31N 33°55' W 118°55'611.9
2018-Feb-13 07:01N 33°52' W 118°49'611.9
2018-Feb-13 06:31N 33°49' W 118°43'611.9
2018-Feb-13 06:00N 33°46' W 118°36'611.7
2018-Feb-13 05:31N 33°43' W 118°30'611.4
2018-Feb-13 05:01N 33°40' W 118°24'710.2
2018-Feb-13 04:19N 33°38' W 118°16'310.0
2018-Feb-13 04:00N 33°39' W 118°13'3 6.5
2018-Feb-13 03:30N 33°42' W 118°11'3 6.8
2018-Feb-13 03:01N 33°45' W 118°13'1 1.1
2018-Feb-13 02:25N 33°45' W 118°14'0 0.0
2018-Feb-13 01:46N 33°45' W 118°14'0 0.0
2018-Feb-13 01:28N 33°45' W 118°14'0 0.0
2018-Feb-13 00:58N 33°45' W 118°14'0 0.0
2018-Feb-13 00:25N 33°45' W 118°14'0 0.0
2018-Feb-12 23:58N 33°45' W 118°14'0 0.0
2018-Feb-12 23:28N 33°45' W 118°14'0 0.0
2018-Feb-12 22:58N 33°45' W 118°14'0 0.0
2018-Feb-12 22:28N 33°45' W 118°14'0 0.0
2018-Feb-12 21:58N 33°45' W 118°14'0 0.0
2018-Feb-12 21:28N 33°45' W 118°14'0 0.0
2018-Feb-12 20:58N 33°45' W 118°14'0 0.0
2018-Feb-12 20:25N 33°45' W 118°14'0 0.0
2018-Feb-12 19:58N 33°45' W 118°14'0 0.0
2018-Feb-12 19:28N 33°45' W 118°14'0 0.0
2018-Feb-12 18:58N 33°45' W 118°14'0 0.0
2018-Feb-12 18:28N 33°45' W 118°14'0 0.0
2018-Feb-12 17:58N 33°45' W 118°14'0 0.0
2018-Feb-12 17:28N 33°45' W 118°14'0 0.0
2018-Feb-12 16:58N 33°45' W 118°14'0 0.0
2018-Feb-12 16:28N 33°45' W 118°14'0 0.0
2018-Feb-12 15:58N 33°45' W 118°14'0 0.0
2018-Feb-12 15:13N 33°45' W 118°14'0 0.0
2018-Feb-12 14:58N 33°45' W 118°14'0 0.0
2018-Feb-12 14:28N 33°45' W 118°14'0 0.0
2018-Feb-12 13:55N 33°45' W 118°14'0 0.0
2018-Feb-12 13:28N 33°45' W 118°14'0 0.0
2018-Feb-12 12:58N 33°45' W 118°14'0 0.0
2018-Feb-12 12:28N 33°45' W 118°14'0 0.0
2018-Feb-12 11:58N 33°45' W 118°14'0 0.0
2018-Feb-12 11:28N 33°45' W 118°14'0 0.0
2018-Feb-12 10:58N 33°45' W 118°14'0 0.0
2018-Feb-12 10:28N 33°45' W 118°14'0 0.0
2018-Feb-12 09:58N 33°45' W 118°14'0 0.0
2018-Feb-12 09:13N 33°45' W 118°14'0 0.0
2018-Feb-12 08:52N 33°45' W 118°14'0 0.0
2018-Feb-12 08:28N 33°45' W 118°14'0 0.0
2018-Feb-12 07:55N 33°45' W 118°14'0 0.0
2018-Feb-12 07:25N 33°45' W 118°14'0 0.0
2018-Feb-12 06:55N 33°45' W 118°14'0 0.0
2018-Feb-12 06:10N 33°45' W 118°14'0 0.0
2018-Feb-12 05:55N 33°45' W 118°14'0 0.0
2018-Feb-12 05:19N 33°45' W 118°14'0 0.0
2018-Feb-12 04:49N 33°45' W 118°14'0 0.0
2018-Feb-12 04:28N 33°45' W 118°14'0 0.0
2018-Feb-12 03:58N 33°45' W 118°14'0 0.0
2018-Feb-12 02:13N 33°45' W 118°14'0 0.0
2018-Feb-12 01:58N 33°45' W 118°14'0 0.0
2018-Feb-12 01:28N 33°45' W 118°14'0 0.0
2018-Feb-12 00:58N 33°45' W 118°14'0 0.0
2018-Feb-12 00:28N 33°45' W 118°14'0 0.0
2018-Feb-11 23:58N 33°45' W 118°14'0 0.0
2018-Feb-11 23:28N 33°45' W 118°14'0 0.0
2018-Feb-11 22:58N 33°45' W 118°14'0 0.0
2018-Feb-11 22:28N 33°45' W 118°14'0 0.0
2018-Feb-11 21:58N 33°45' W 118°14'0 0.0
2018-Feb-11 21:28N 33°45' W 118°14'0 0.0
2018-Feb-11 20:59N 33°45' W 118°14'0 0.0
2018-Feb-11 20:29N 33°45' W 118°14'0 0.0
2018-Feb-11 19:58N 33°45' W 118°14'0 0.0
2018-Feb-11 19:28N 33°45' W 118°14'0 0.0
2018-Feb-11 18:58N 33°45' W 118°14'0 0.0
2018-Feb-11 18:28N 33°45' W 118°14'0 0.0
2018-Feb-11 17:58N 33°45' W 118°14'0 0.0
2018-Feb-11 17:28N 33°45' W 118°14'0 0.0
2018-Feb-11 16:55N 33°45' W 118°14'0 0.0
2018-Feb-11 16:28N 33°45' W 118°14'0 0.0
2018-Feb-11 15:58N 33°45' W 118°14'0 0.0
2018-Feb-11 15:28N 33°45' W 118°14'0 0.0
2018-Feb-11 14:55N 33°45' W 118°14'0 0.0
2018-Feb-11 14:28N 33°45' W 118°14'0 0.0
2018-Feb-11 13:58N 33°45' W 118°14'0 0.0
2018-Feb-11 13:28N 33°45' W 118°14'0 0.0
2018-Feb-11 12:58N 33°45' W 118°14'0 0.0
2018-Feb-11 12:28N 33°45' W 118°14'0 0.0
2018-Feb-11 11:58N 33°45' W 118°14'0 0.0
2018-Feb-11 11:28N 33°45' W 118°14'0 0.0
2018-Feb-11 10:58N 33°45' W 118°14'0 0.0
2018-Feb-11 10:28N 33°45' W 118°14'0 0.0
2018-Feb-11 09:58N 33°45' W 118°14'0 0.0
2018-Feb-11 09:28N 33°45' W 118°14'0 0.0
2018-Feb-11 08:58N 33°45' W 118°14'0 0.0
2018-Feb-11 08:25N 33°45' W 118°14'0 0.0
2018-Feb-11 07:55N 33°45' W 118°14'0 0.0
2018-Feb-11 07:25N 33°45' W 118°14'0 0.0
2018-Feb-11 06:49N 33°45' W 118°14'0 0.0
2018-Feb-11 06:28N 33°45' W 118°14'0 0.0
2018-Feb-11 05:58N 33°45' W 118°14'0 0.0
2018-Feb-11 05:25N 33°45' W 118°14'0 0.0
2018-Feb-11 04:52N 33°45' W 118°14'0 0.0
2018-Feb-11 04:28N 33°45' W 118°14'0 0.0
2018-Feb-11 03:58N 33°45' W 118°14'0 0.0
2018-Feb-11 03:19N 33°45' W 118°14'0 0.0
2018-Feb-11 02:58N 33°45' W 118°14'0 0.0
2018-Feb-11 02:28N 33°45' W 118°14'0 0.0
2018-Feb-11 01:58N 33°45' W 118°14'0 0.0
2018-Feb-11 01:28N 33°45' W 118°14'0 0.0
2018-Feb-11 00:58N 33°45' W 118°14'0 0.0
2018-Feb-11 00:28N 33°45' W 118°14'0 0.0
2018-Feb-10 23:58N 33°45' W 118°14'0 0.0
2018-Feb-10 23:28N 33°45' W 118°14'0 0.0
2018-Feb-10 22:58N 33°45' W 118°14'0 0.0
2018-Feb-10 22:28N 33°45' W 118°14'0 0.0
2018-Feb-10 21:58N 33°45' W 118°14'0 0.0
2018-Feb-10 21:28N 33°45' W 118°14'0 0.0
2018-Feb-10 20:58N 33°45' W 118°14'0 0.0
2018-Feb-10 20:28N 33°45' W 118°14'0 0.0
2018-Feb-10 19:55N 33°45' W 118°14'0 0.0
2018-Feb-10 19:28N 33°45' W 118°14'0 0.0
2018-Feb-10 18:58N 33°45' W 118°14'0 0.0
2018-Feb-10 18:28N 33°45' W 118°14'0 0.0
2018-Feb-10 17:55N 33°45' W 118°14'0 0.0
2018-Feb-10 17:28N 33°45' W 118°14'0 0.0
2018-Feb-10 16:58N 33°45' W 118°14'0 0.0
2018-Feb-10 16:28N 33°45' W 118°14'0 0.0
2018-Feb-10 15:58N 33°45' W 118°14'0 0.0
2018-Feb-10 15:28N 33°45' W 118°14'0 0.0
2018-Feb-10 14:58N 33°45' W 118°14'0 0.0
2018-Feb-10 14:28N 33°45' W 118°14'0 0.0
2018-Feb-10 13:58N 33°45' W 118°14'0 0.0
2018-Feb-10 13:28N 33°45' W 118°14'0 0.0
2018-Feb-10 12:58N 33°45' W 118°14'0 0.0
2018-Feb-10 12:28N 33°45' W 118°14'0 0.0
2018-Feb-10 11:58N 33°45' W 118°14'0 0.0
2018-Feb-10 11:26N 33°45' W 118°14'0 0.0
2018-Feb-10 10:56N 33°45' W 118°14'0 0.0
2018-Feb-10 10:29N 33°45' W 118°14'0 0.0
2018-Feb-10 09:58N 33°45' W 118°14'0 0.0
2018-Feb-10 09:28N 33°45' W 118°14'0 0.0
2018-Feb-10 08:58N 33°45' W 118°14'0 0.0
2018-Feb-10 08:28N 33°45' W 118°14'0 0.0
2018-Feb-10 07:52N 33°45' W 118°14'0 0.0
2018-Feb-10 07:28N 33°45' W 118°14'0 0.0
2018-Feb-10 06:58N 33°45' W 118°14'0 0.0
2018-Feb-10 06:28N 33°45' W 118°14'0 0.0
2018-Feb-10 05:58N 33°45' W 118°14'0 0.0
2018-Feb-10 05:28N 33°45' W 118°14'0 0.0
2018-Feb-10 04:58N 33°45' W 118°14'0 0.0
2018-Feb-10 04:28N 33°45' W 118°14'0 0.0
2018-Feb-10 03:58N 33°45' W 118°14'0 0.0
2018-Feb-10 03:28N 33°45' W 118°14'0 0.0
2018-Feb-10 02:58N 33°45' W 118°14'0 0.0
2018-Feb-10 02:30N 33°45' W 118°14'0 0.0
2018-Feb-10 02:00N 33°45' W 118°14'0 0.0
2018-Feb-10 01:30N 33°45' W 118°14'0 0.0
2018-Feb-10 01:00N 33°45' W 118°14'0 0.0
2018-Feb-10 00:30N 33°45' W 118°14'0 0.0
2018-Feb-10 00:00N 33°45' W 118°14'0 0.0
2018-Feb-09 23:30N 33°45' W 118°14'0 0.0
2018-Feb-09 23:00N 33°45' W 118°14'0 0.0
2018-Feb-09 22:46N 33°45' W 118°14'0 0.0
2018-Feb-09 22:31N 33°45' W 118°14'0 0.0
2018-Feb-09 22:01N 33°45' W 118°14'0 0.0
2018-Feb-09 21:01N 33°45' W 118°14'0 0.0
2018-Feb-09 20:31N 33°45' W 118°14'0 0.0
2018-Feb-09 20:01N 33°45' W 118°14'0 0.0
2018-Feb-09 19:31N 33°45' W 118°14'0 0.0
2018-Feb-09 19:00N 33°45' W 118°14'0 0.0
2018-Feb-09 18:30N 33°45' W 118°14'0 0.0
2018-Feb-09 18:01N 33°45' W 118°14'0 0.0
2018-Feb-09 15:30N 33°45' W 118°14'0 0.0
2018-Feb-09 14:31N 33°45' W 118°14'0 0.0
2018-Feb-09 14:01N 33°45' W 118°14'0 0.0
2018-Feb-09 12:30N 33°45' W 118°14'0 0.0
2018-Feb-09 12:00N 33°45' W 118°14'0 0.0
2018-Feb-09 11:30N 33°45' W 118°14'0 0.0
2018-Feb-09 11:01N 33°45' W 118°14'0 0.0
2018-Feb-09 10:01N 33°45' W 118°14'0 0.0
2018-Feb-09 08:31N 33°45' W 118°14'0 0.0
2018-Feb-09 04:00N 33°45' W 118°14'0 0.0
2018-Feb-09 00:00N 33°45' W 118°14'0 0.0
2018-Feb-08 23:31N 33°45' W 118°14'0 0.0
2018-Feb-08 18:30N 33°45' W 118°14'0 0.1
2018-Feb-08 12:00N 33°45' W 118°14'29 7.2
2018-Feb-08 08:00N 33°49' W 118°48'1711.1
2018-Feb-08 06:30N 33°57' W 119°06'611.4
2018-Feb-08 06:00N 34°00' W 119°12'5317.7
2018-Feb-08 03:00N 34°16' W 120°13'2818.9
2018-Feb-08 01:30N 34°23' W 120°46'918.4
2018-Feb-08 01:00N 34°25' W 120°57'918.4
2018-Feb-08 00:30N 34°25' W 121°08'1018.8
2018-Feb-07 23:59N 34°26' W 121°20'1018.8
2018-Feb-07 23:29N 34°26' W 121°31'918.9
2018-Feb-07 23:00N 34°26' W 121°42'1018.6
2018-Feb-07 22:28N 34°27' W 121°55'30218.4
2018-Feb-07 06:01N 36°07' W 127°44'122.2
2018-Feb-07 05:58N 36°07' W 127°45'13822.3
2018-Feb-06 23:45N 37°31' W 130°03'  

Dump ship's entire track history